Time;durP1;ratioP1;P1;durP2;ratioP2;P2;SDS_P1;SDS_P2;PMS_P1;PMS_P2;Temp;Humidity;BMP_temperature;BMP_pressure;BME280_temperature;BME280_humidity;BME280_pressure;Samples;Min_cycle;Max_cycle;Signal;HPM_P1;HPM_P2
2021/09/20 00:01:17;;;;;;;4.70;3.70;;;13.60;98.30;;;;;;5166029;23;20913;-82
2021/09/20 00:03:21;;;;;;;6.73;3.47;;;13.50;98.30;;;;;;5172884;23;20455;-81
2021/09/20 00:05:26;;;;;;;4.00;3.60;;;13.50;98.30;;;;;;5172459;23;20423;-82
2021/09/20 00:07:30;;;;;;;4.50;3.43;;;13.50;98.30;;;;;;5173600;23;20439;-81
2021/09/20 00:09:33;;;;;;;4.53;3.80;;;13.50;98.30;;;;;;5174657;23;20427;-82
2021/09/20 00:11:36;;;;;;;5.00;3.70;;;13.50;98.30;;;;;;5175469;23;20745;-81
2021/09/20 00:13:39;;;;;;;4.60;3.90;;;13.50;98.30;;;;;;5167150;23;20432;-82
2021/09/20 00:15:42;;;;;;;4.20;3.80;;;13.50;98.30;;;;;;5175247;23;20764;-81
2021/09/20 00:17:45;;;;;;;4.10;3.60;;;13.50;98.30;;;;;;5166220;23;20567;-81
2021/09/20 00:19:48;;;;;;;7.37;4.00;;;13.60;98.30;;;;;;5175239;23;20434;-81
2021/09/20 00:21:52;;;;;;;4.63;3.97;;;13.70;98.30;;;;;;5175863;23;20426;-82
2021/09/20 00:23:55;;;;;;;4.03;3.50;;;13.70;98.30;;;;;;5167047;23;20430;-81
2021/09/20 00:25:58;;;;;;;4.63;4.10;;;13.70;98.30;;;;;;5165378;23;20510;-82
2021/09/20 00:28:01;;;;;;;4.30;3.57;;;13.70;98.30;;;;;;5174451;23;20442;-81
2021/09/20 00:30:06;;;;;;;7.47;4.23;;;13.70;98.30;;;;;;5175313;23;20490;-81
2021/09/20 00:32:09;;;;;;;6.07;4.10;;;13.70;98.30;;;;;;5167084;23;20434;-81
2021/09/20 00:34:12;;;;;;;5.77;3.77;;;13.70;98.30;;;;;;5175140;23;20450;-83
2021/09/20 00:36:15;;;;;;;4.70;3.73;;;13.70;98.30;;;;;;5166913;23;20910;-82
2021/09/20 00:38:20;;;;;;;8.37;4.10;;;13.80;98.30;;;;;;5166943;23;20522;-82
2021/09/20 00:40:22;;;;;;;3.97;3.57;;;13.80;98.30;;;;;;5175363;23;20419;-82
2021/09/20 00:42:25;;;;;;;6.50;3.77;;;13.80;98.30;;;;;;5176000;23;20478;-82
2021/09/20 00:44:28;;;;;;;4.40;4.00;;;13.80;98.30;;;;;;5174957;23;20424;-82
2021/09/20 00:46:31;;;;;;;5.60;3.90;;;13.90;98.30;;;;;;5166833;23;20444;-82
2021/09/20 00:48:34;;;;;;;4.53;3.50;;;13.90;98.30;;;;;;5166137;23;20442;-82
2021/09/20 00:50:38;;;;;;;7.03;4.83;;;13.80;98.30;;;;;;5165993;23;20434;-82
2021/09/20 00:52:40;;;;;;;6.20;4.40;;;13.80;98.30;;;;;;5173847;23;20927;-82
2021/09/20 00:54:45;;;;;;;5.17;3.93;;;13.80;98.30;;;;;;5173993;23;20745;-81
2021/09/20 00:56:48;;;;;;;5.40;3.77;;;13.80;98.30;;;;;;5175017;23;20431;-81
2021/09/20 00:58:51;;;;;;;5.70;4.10;;;13.80;98.30;;;;;;5165848;23;20432;-81
2021/09/20 01:00:55;;;;;;;6.97;4.00;;;13.70;98.30;;;;;;5174792;23;20502;-82
2021/09/20 01:02:58;;;;;;;4.00;3.60;;;13.80;98.30;;;;;;5167355;23;20456;-81
2021/09/20 01:05:01;;;;;;;5.63;3.83;;;13.80;98.30;;;;;;5168913;23;20983;-81
2021/09/20 01:07:04;;;;;;;7.97;4.37;;;13.70;98.30;;;;;;5173894;23;20447;-81
2021/09/20 01:09:07;;;;;;;4.90;3.73;;;13.60;98.30;;;;;;5172914;23;20428;-81
2021/09/20 01:11:12;;;;;;;4.50;3.90;;;13.60;98.30;;;;;;5180844;23;20416;-82
2021/09/20 01:13:14;;;;;;;4.70;3.83;;;13.50;98.30;;;;;;5173347;23;20507;-81
2021/09/20 01:15:17;;;;;;;4.47;3.60;;;13.40;98.30;;;;;;5172028;23;20499;-81
2021/09/20 01:17:20;;;;;;;6.03;4.10;;;13.50;98.30;;;;;;5172578;23;20467;-81
2021/09/20 01:19:23;;;;;;;6.27;5.37;;;13.50;98.30;;;;;;5170375;23;20438;-82
2021/09/20 01:21:26;;;;;;;4.40;4.00;;;13.50;98.30;;;;;;5166667;23;20824;-82
2021/09/20 01:23:30;;;;;;;6.83;3.60;;;13.50;98.30;;;;;;5167230;23;20772;-82
2021/09/20 01:25:34;;;;;;;4.30;3.90;;;13.50;98.30;;;;;;5166967;23;20434;-82
2021/09/20 01:27:37;;;;;;;5.80;3.70;;;13.60;98.30;;;;;;5166724;23;21016;-83
2021/09/20 01:29:40;;;;;;;5.77;3.80;;;13.50;98.30;;;;;;5166778;23;20424;-82
2021/09/20 01:31:43;;;;;;;7.97;3.90;;;13.40;98.30;;;;;;5166899;23;20473;-83
2021/09/20 01:33:46;;;;;;;4.17;3.77;;;13.40;98.30;;;;;;5176021;23;20420;-82
2021/09/20 01:35:49;;;;;;;5.13;3.70;;;13.40;98.30;;;;;;5166233;23;20771;-82
2021/09/20 01:37:52;;;;;;;8.80;4.30;;;13.50;98.30;;;;;;5175218;23;20436;-82
2021/09/20 01:39:57;;;;;;;7.60;3.83;;;13.50;98.30;;;;;;5165908;23;20428;-82
2021/09/20 01:42:00;;;;;;;5.27;3.97;;;13.60;98.30;;;;;;5175914;23;20510;-82
2021/09/20 01:44:04;;;;;;;4.17;3.77;;;13.50;98.30;;;;;;5174376;23;20430;-82
2021/09/20 01:46:07;;;;;;;5.70;3.83;;;13.50;98.30;;;;;;5165299;23;20450;-82
2021/09/20 01:48:10;;;;;;;5.90;4.00;;;13.40;98.30;;;;;;5166646;23;20451;-82
2021/09/20 01:50:14;;;;;;;4.57;4.10;;;13.40;98.30;;;;;;5167263;23;20428;-83
2021/09/20 01:52:42;;;;;;;5.13;4.47;;;13.30;98.30;;;;;;5165656;23;20923;-82
2021/09/20 01:55:12;;;;;;;4.03;3.63;;;13.40;98.30;;;;;;5165518;23;20477;-83
2021/09/20 01:57:15;;;;;;;4.70;3.80;;;13.50;98.30;;;;;;5168007;23;20462;-81
2021/09/20 01:59:18;;;;;;;4.53;4.10;;;13.50;98.30;;;;;;5167445;23;20431;-82
2021/09/20 02:01:21;;;;;;;4.80;3.60;;;13.40;98.30;;;;;;5167784;23;20983;-82
2021/09/20 02:03:48;;;;;;;4.57;4.17;;;13.40;98.30;;;;;;5169846;23;20438;-82
2021/09/20 02:05:51;;;;;;;7.67;4.27;;;13.50;98.30;;;;;;5165337;23;20514;-82
2021/09/20 02:07:56;;;;;;;4.50;4.10;;;13.40;98.30;;;;;;5168567;23;20452;-81
2021/09/20 02:09:59;;;;;;;4.50;4.10;;;13.50;98.30;;;;;;5167278;23;20467;-81
2021/09/20 02:12:05;;;;;;;4.83;4.30;;;13.60;98.30;;;;;;5167593;23;20501;-81
2021/09/20 02:14:33;;;;;;;7.40;4.20;;;13.50;98.30;;;;;;5166497;23;20475;-81
2021/09/20 02:17:00;;;;;;;6.73;4.70;;;13.50;98.30;;;;;;5165232;23;20486;-81
2021/09/20 02:19:27;;;;;;;5.23;4.23;;;13.40;98.30;;;;;;5168857;23;20399;-82
2021/09/20 02:21:32;;;;;;;5.33;4.37;;;13.50;98.30;;;;;;5167185;23;20431;-81
2021/09/20 02:23:35;;;;;;;5.77;3.70;;;13.50;98.30;;;;;;5167038;23;20424;-82
2021/09/20 02:25:40;;;;;;;4.30;3.90;;;13.50;98.30;;;;;;5167487;23;20423;-81
2021/09/20 02:27:44;;;;;;;4.83;4.30;;;13.50;98.30;;;;;;5168882;23;20956;-81
2021/09/20 02:29:47;;;;;;;5.30;4.40;;;13.50;98.30;;;;;;5167526;23;20518;-81
2021/09/20 02:32:14;;;;;;;7.70;4.80;;;13.40;98.30;;;;;;5169200;23;20447;-81
2021/09/20 02:34:17;;;;;;;5.97;4.60;;;13.40;98.30;;;;;;5173336;23;20447;-81
2021/09/20 02:36:44;;;;;;;4.50;4.00;;;13.40;98.30;;;;;;5166975;23;20498;-81
2021/09/20 02:39:11;;;;;;;5.33;4.73;;;13.40;98.30;;;;;;5165897;23;20430;-81
2021/09/20 02:41:38;;;;;;;6.63;4.30;;;13.50;98.30;;;;;;5166354;23;20412;-81
2021/09/20 02:44:07;;;;;;;4.70;4.20;;;13.60;98.30;;;;;;5167068;23;20473;-81
2021/09/20 02:46:34;;;;;;;4.90;4.40;;;13.50;98.30;;;;;;5166372;23;20423;-81
2021/09/20 02:48:37;;;;;;;4.90;4.07;;;13.50;98.30;;;;;;5165864;23;20440;-83
2021/09/20 02:50:40;;;;;;;4.20;3.80;;;13.50;98.30;;;;;;5168440;23;20430;-82
2021/09/20 02:52:43;;;;;;;5.97;5.37;;;13.40;98.30;;;;;;5167919;23;20428;-82
2021/09/20 02:54:46;;;;;;;4.30;3.90;;;13.40;98.30;;;;;;5168693;23;20428;-81
2021/09/20 02:56:49;;;;;;;8.20;4.67;;;13.30;98.30;;;;;;5166489;23;20502;-81
2021/09/20 02:58:52;;;;;;;4.50;4.10;;;13.40;98.30;;;;;;5164695;23;20412;-81
2021/09/20 03:00:56;;;;;;;6.80;4.50;;;13.40;98.30;;;;;;5173277;23;20421;-81
2021/09/20 03:03:00;;;;;;;5.13;4.60;;;13.40;98.30;;;;;;5164187;23;20897;-81
2021/09/20 03:05:05;;;;;;;8.57;4.43;;;13.40;98.30;;;;;;5166767;23;20447;-81
2021/09/20 03:07:12;;;;;;;4.97;4.37;;;13.40;98.30;;;;;;5166456;23;20951;-81
2021/09/20 03:09:15;;;;;;;4.90;4.40;;;13.40;98.30;;;;;;5167684;23;20765;-81
2021/09/20 03:11:18;;;;;;;5.10;4.60;;;13.30;98.30;;;;;;5166910;23;20438;-81
2021/09/20 03:13:22;;;;;;;9.73;3.80;;;13.30;98.30;;;;;;5167631;23;20408;-81
2021/09/20 03:15:26;;;;;;;5.70;4.40;;;13.40;98.30;;;;;;5166792;23;20455;-81
2021/09/20 03:17:55;;;;;;;5.80;4.53;;;13.40;98.30;;;;;;5167278;23;20972;-81
2021/09/20 03:19:58;;;;;;;6.20;4.90;;;13.30;98.30;;;;;;5166252;23;20434;-81
2021/09/20 03:22:02;;;;;;;6.70;5.50;;;13.30;98.30;;;;;;5167232;23;20430;-81
2021/09/20 03:24:05;;;;;;;5.70;4.60;;;13.20;98.30;;;;;;5165822;23;20431;-81
2021/09/20 03:26:32;;;;;;;5.50;4.83;;;13.20;98.30;;;;;;5166963;23;21079;-81
2021/09/20 03:28:35;;;;;;;5.73;4.47;;;13.40;98.30;;;;;;5168608;23;20531;-81
2021/09/20 03:30:39;;;;;;;6.07;4.73;;;13.40;98.30;;;;;;5166967;23;20967;-81
2021/09/20 03:32:43;;;;;;;4.93;4.43;;;13.40;98.30;;;;;;5167254;23;20436;-82
2021/09/20 03:34:47;;;;;;;6.00;4.30;;;13.40;98.30;;;;;;5166184;23;21031;-82
2021/09/20 03:36:52;;;;;;;5.30;4.53;;;13.30;98.30;;;;;;5165989;23;20853;-81
2021/09/20 03:38:55;;;;;;;5.33;4.57;;;13.40;98.30;;;;;;5165479;23;20507;-82
2021/09/20 03:40:58;;;;;;;5.53;4.97;;;13.30;98.30;;;;;;5166628;23;20928;-81
2021/09/20 03:43:01;;;;;;;5.77;4.73;;;13.30;98.30;;;;;;5167210;23;20932;-81
2021/09/20 03:45:04;;;;;;;6.77;4.10;;;13.40;98.30;;;;;;5166844;23;20431;-81
2021/09/20 03:47:07;;;;;;;6.83;4.17;;;13.40;98.30;;;;;;5175494;23;20447;-81
2021/09/20 03:49:10;;;;;;;6.97;4.20;;;13.40;98.30;;;;;;5165823;23;20454;-81
2021/09/20 03:51:15;;;;;;;4.83;4.30;;;13.40;98.30;;;;;;5167516;23;20434;-82
2021/09/20 03:53:17;;;;;;;5.03;3.97;;;13.40;98.30;;;;;;5166405;23;20435;-81
2021/09/20 03:55:20;;;;;;;5.10;4.20;;;13.30;98.30;;;;;;5167087;23;20444;-81
2021/09/20 03:57:23;;;;;;;10.13;4.50;;;13.30;98.30;;;;;;5167050;23;20459;-81
2021/09/20 03:59:26;;;;;;;4.90;4.40;;;13.40;98.30;;;;;;5167391;23;20420;-81
2021/09/20 04:01:29;;;;;;;6.10;5.10;;;13.30;98.30;;;;;;5168393;23;20917;-81
2021/09/20 04:03:32;;;;;;;9.27;6.50;;;13.30;98.30;;;;;;5175461;23;20416;-81
2021/09/20 04:05:35;;;;;;;13.23;7.47;;;13.30;98.30;;;;;;5166184;23;20436;-81
2021/09/20 04:07:42;;;;;;;15.23;10.90;;;13.40;98.30;;;;;;5166900;23;20448;-81
2021/09/20 04:09:45;;;;;;;17.13;11.13;;;13.40;98.30;;;;;;5175206;23;20863;-81
2021/09/20 04:11:48;;;;;;;13.23;9.10;;;13.50;98.30;;;;;;5165340;23;20423;-81
2021/09/20 04:13:51;;;;;;;8.73;7.60;;;13.50;98.30;;;;;;5165129;23;20446;-81
2021/09/20 04:15:55;;;;;;;11.17;7.70;;;13.50;98.30;;;;;;5164491;23;20470;-81
2021/09/20 04:17:58;;;;;;;12.73;9.43;;;13.50;98.30;;;;;;5165027;23;20550;-81
2021/09/20 04:20:01;;;;;;;17.87;12.50;;;13.50;98.30;;;;;;5165302;23;20923;-81
2021/09/20 04:22:05;;;;;;;15.73;10.93;;;13.50;98.30;;;;;;5167870;23;20557;-82
2021/09/20 04:24:11;;;;;;;11.73;7.47;;;13.50;98.30;;;;;;5167400;23;20424;-81
2021/09/20 04:26:15;;;;;;;8.00;5.57;;;13.50;98.30;;;;;;5168157;23;20443;-81
2021/09/20 04:28:19;;;;;;;5.50;4.40;;;13.40;98.30;;;;;;5176021;23;20458;-81
2021/09/20 04:30:22;;;;;;;5.93;4.90;;;13.40;98.30;;;;;;5167764;23;20434;-81
2021/09/20 04:32:26;;;;;;;10.80;8.03;;;13.30;98.30;;;;;;5167808;23;20472;-82
2021/09/20 04:34:29;;;;;;;5.60;4.60;;;13.40;98.30;;;;;;5176739;23;20889;-82
2021/09/20 04:36:32;;;;;;;6.67;5.70;;;13.30;98.30;;;;;;5174914;23;20412;-82
2021/09/20 04:38:35;;;;;;;13.67;9.27;;;13.30;98.30;;;;;;5175043;23;20793;-81
2021/09/20 04:40:40;;;;;;;8.80;5.60;;;13.30;98.30;;;;;;5167413;23;20459;-82
2021/09/20 04:42:43;;;;;;;8.57;5.10;;;13.40;98.30;;;;;;5168389;23;20434;-82
2021/09/20 04:44:46;;;;;;;6.30;5.03;;;13.40;98.30;;;;;;5167481;23;20769;-82
2021/09/20 04:46:49;;;;;;;6.60;4.30;;;13.40;98.30;;;;;;5168434;23;20474;-81
2021/09/20 04:48:52;;;;;;;5.50;4.37;;;13.30;98.30;;;;;;5168394;23;20450;-81
2021/09/20 04:50:57;;;;;;;5.30;4.00;;;13.30;98.30;;;;;;5168025;23;20519;-81
2021/09/20 04:53:00;;;;;;;6.23;3.93;;;13.30;98.30;;;;;;5166493;23;20423;-81
2021/09/20 04:55:03;;;;;;;5.80;4.00;;;13.30;98.30;;;;;;5174389;23;20419;-80
2021/09/20 04:57:07;;;;;;;8.30;3.80;;;13.30;98.30;;;;;;5165673;23;20992;-81
2021/09/20 04:59:10;;;;;;;8.30;4.10;;;13.30;98.30;;;;;;5165318;23;20436;-80
2021/09/20 05:01:13;;;;;;;5.60;4.87;;;13.20;98.30;;;;;;5166490;23;20428;-81
2021/09/20 05:03:16;;;;;;;7.23;4.47;;;13.20;98.30;;;;;;5166492;23;20432;-81
2021/09/20 05:05:19;;;;;;;5.87;4.77;;;13.20;98.30;;;;;;5166219;23;20424;-81
2021/09/20 05:07:22;;;;;;;9.33;4.93;;;13.20;98.30;;;;;;5166537;23;20447;-81
2021/09/20 05:09:25;;;;;;;8.93;4.90;;;13.20;98.30;;;;;;5166911;23;20526;-81
2021/09/20 05:11:28;;;;;;;7.63;4.67;;;13.20;98.30;;;;;;5167859;23;20796;-82
2021/09/20 05:13:32;;;;;;;10.50;4.83;;;13.20;98.30;;;;;;5168300;23;20456;-81
2021/09/20 05:15:35;;;;;;;7.40;4.50;;;13.20;98.30;;;;;;5168056;23;20435;-81
2021/09/20 05:17:38;;;;;;;4.67;4.10;;;13.20;98.30;;;;;;5176584;23;20443;-82
2021/09/20 05:19:44;;;;;;;6.93;4.93;;;13.20;98.30;;;;;;5169604;23;20408;-81
2021/09/20 05:21:47;;;;;;;6.63;4.60;;;13.20;98.30;;;;;;5169128;23;20424;-82
2021/09/20 05:23:52;;;;;;;6.60;4.77;;;13.30;98.30;;;;;;5169196;23;21151;-81
2021/09/20 05:25:55;;;;;;;7.73;4.70;;;13.20;98.30;;;;;;5168928;23;20478;-82
2021/09/20 05:27:58;;;;;;;7.27;4.40;;;13.30;98.30;;;;;;5169044;23;20451;-81
2021/09/20 05:30:04;;;;;;;5.40;4.80;;;13.30;98.30;;;;;;5168353;23;20499;-81
2021/09/20 05:32:07;;;;;;;5.80;4.30;;;13.40;98.30;;;;;;5169263;23;20420;-81
2021/09/20 05:34:10;;;;;;;5.13;4.27;;;13.30;98.30;;;;;;5178006;23;20443;-81
2021/09/20 05:36:13;;;;;;;6.07;4.53;;;13.20;98.30;;;;;;5169062;23;20424;-81
2021/09/20 05:38:17;;;;;;;6.20;5.57;;;13.30;98.30;;;;;;5168800;23;20439;-81
2021/09/20 05:40:24;;;;;;;5.13;4.63;;;13.30;98.30;;;;;;5177760;23;20746;-81
2021/09/20 05:42:27;;;;;;;6.50;4.63;;;13.40;98.30;;;;;;5168846;23;20499;-81
2021/09/20 05:44:30;;;;;;;6.40;5.77;;;13.30;98.30;;;;;;5168421;23;20428;-81
2021/09/20 05:46:34;;;;;;;6.20;4.77;;;13.40;98.30;;;;;;5168458;23;20424;-81
2021/09/20 05:48:37;;;;;;;8.20;4.70;;;13.40;98.30;;;;;;5171366;23;20884;-81
2021/09/20 05:50:40;;;;;;;8.33;6.20;;;13.50;98.30;;;;;;5176485;23;20439;-80
2021/09/20 05:52:43;;;;;;;5.47;4.63;;;13.40;98.30;;;;;;5183249;23;20511;-80
2021/09/20 05:54:46;;;;;;;5.73;4.87;;;13.40;98.30;;;;;;5182336;23;20428;-81
2021/09/20 05:56:49;;;;;;;6.10;4.60;;;13.50;98.30;;;;;;5182519;23;20444;-80
2021/09/20 05:58:52;;;;;;;9.00;4.63;;;13.50;98.30;;;;;;5182977;23;20739;-80
2021/09/20 06:00:54;;;;;;;5.10;4.60;;;13.50;98.30;;;;;;5178335;23;20420;-81
2021/09/20 06:02:59;;;;;;;9.03;5.90;;;13.50;98.30;;;;;;5171275;23;20459;-81
2021/09/20 06:05:02;;;;;;;5.63;4.40;;;13.60;98.30;;;;;;5170720;23;20535;-81
2021/09/20 06:07:05;;;;;;;10.73;6.77;;;13.60;98.30;;;;;;5170541;23;20451;-81
2021/09/20 06:09:08;;;;;;;8.90;4.87;;;13.60;98.30;;;;;;5172040;23;20420;-81
2021/09/20 06:11:12;;;;;;;5.67;4.83;;;13.50;98.30;;;;;;5170163;23;20424;-81
2021/09/20 06:13:15;;;;;;;4.73;4.23;;;13.60;98.30;;;;;;5179549;23;20420;-82
2021/09/20 06:15:18;;;;;;;7.47;4.93;;;13.60;98.30;;;;;;5170567;23;20430;-81
2021/09/20 06:17:21;;;;;;;5.37;4.87;;;13.60;98.30;;;;;;5170895;23;20458;-81
2021/09/20 06:19:25;;;;;;;9.90;5.23;;;13.70;98.30;;;;;;5179258;23;20788;-81
2021/09/20 06:21:28;;;;;;;6.80;4.97;;;13.70;98.30;;;;;;5170510;23;20451;-80
2021/09/20 06:23:31;;;;;;;5.53;4.43;;;13.60;98.30;;;;;;5170186;23;20436;-81
2021/09/20 06:25:34;;;;;;;5.87;5.07;;;13.50;98.30;;;;;;5170296;23;20428;-81
2021/09/20 06:27:38;;;;;;;6.97;4.70;;;13.40;98.30;;;;;;5178976;23;20436;-81
2021/09/20 06:29:41;;;;;;;6.20;4.63;;;13.40;98.30;;;;;;5170326;23;20444;-80
2021/09/20 06:31:44;;;;;;;5.77;4.57;;;13.50;98.30;;;;;;5170358;23;20909;-81
2021/09/20 06:33:47;;;;;;;5.87;4.90;;;13.60;98.30;;;;;;5170207;23;20424;-81
2021/09/20 06:35:55;;;;;;;6.00;4.50;;;13.60;98.30;;;;;;5169694;23;20428;-80
2021/09/20 06:37:58;;;;;;;6.30;4.60;;;13.60;98.30;;;;;;5169303;23;20450;-81
2021/09/20 06:40:01;;;;;;;5.27;4.77;;;13.60;98.30;;;;;;5169751;23;20432;-81
2021/09/20 06:42:06;;;;;;;5.83;4.90;;;13.50;98.30;;;;;;5169764;23;20432;-81
2021/09/20 06:44:09;;;;;;;7.03;4.80;;;13.50;98.30;;;;;;5170591;23;20507;-81
2021/09/20 06:46:12;;;;;;;5.70;4.50;;;13.50;98.30;;;;;;5170249;23;20434;-81
2021/09/20 06:48:15;;;;;;;6.23;4.87;;;13.60;98.30;;;;;;5168872;23;20479;-81
2021/09/20 06:50:18;;;;;;;6.57;4.80;;;13.60;98.30;;;;;;5168615;23;20444;-81
2021/09/20 06:52:22;;;;;;;4.90;4.40;;;13.70;98.30;;;;;;5169093;23;20458;-81
2021/09/20 06:54:25;;;;;;;9.53;7.67;;;13.70;98.30;;;;;;5168953;23;20961;-81
2021/09/20 06:56:28;;;;;;;23.90;16.00;;;13.70;98.30;;;;;;5169126;23;20921;-81
2021/09/20 06:58:31;;;;;;;40.70;23.87;;;13.80;98.30;;;;;;5168145;23;20750;-81
2021/09/20 07:00:34;;;;;;;10.40;8.00;;;13.70;98.30;;;;;;5169497;23;20912;-80
2021/09/20 07:02:37;;;;;;;5.70;5.13;;;13.80;98.30;;;;;;5168984;23;20436;-81
2021/09/20 07:04:46;;;;;;;5.57;4.70;;;13.90;98.30;;;;;;5168779;23;20538;-80
2021/09/20 07:06:49;;;;;;;7.77;6.20;;;13.90;98.30;;;;;;5177073;23;20431;-81
2021/09/20 07:08:53;;;;;;;7.07;5.77;;;13.90;98.30;;;;;;5168847;23;20542;-81
2021/09/20 07:10:57;;;;;;;7.63;5.97;;;13.90;98.30;;;;;;5168176;23;20522;-80
2021/09/20 07:13:00;;;;;;;6.63;5.00;;;13.90;98.30;;;;;;5168417;23;20423;-80
2021/09/20 07:15:04;;;;;;;9.13;5.60;;;13.90;98.30;;;;;;5168357;23;20542;-81
2021/09/20 07:17:07;;;;;;;10.43;7.90;;;14.00;98.30;;;;;;5176744;23;20451;-81
2021/09/20 07:19:28;;;;;;;10.40;8.37;;;14.00;98.30;;;;;;5168645;23;20412;-81
2021/09/20 07:21:31;;;;;;;39.20;29.30;;;14.10;98.30;;;;;;5167546;23;20510;-81
2021/09/20 07:23:34;;;;;;;12.13;7.70;;;14.20;98.30;;;;;;5165683;23;20750;-80
2021/09/20 07:25:39;;;;;;;8.40;6.40;;;14.20;98.30;;;;;;5165518;23;20996;-80
2021/09/20 07:27:42;;;;;;;7.47;5.77;;;14.10;98.30;;;;;;5165472;23;20455;-80
2021/09/20 07:29:45;;;;;;;7.00;5.60;;;14.10;98.30;;;;;;5165259;23;20431;-81
2021/09/20 07:31:48;;;;;;;16.73;11.93;;;14.20;98.30;;;;;;5166001;23;20447;-81
2021/09/20 07:33:51;;;;;;;18.63;13.20;;;14.20;98.30;;;;;;5166218;23;20435;-80
2021/09/20 07:35:54;;;;;;;14.40;9.40;;;14.30;98.30;;;;;;5166039;23;20431;-80
2021/09/20 07:37:57;;;;;;;9.93;6.80;;;14.40;98.30;;;;;;5166032;23;20444;-80
2021/09/20 07:40:00;;;;;;;7.67;6.13;;;14.30;98.30;;;;;;5166690;23;20428;-81
2021/09/20 07:42:04;;;;;;;7.70;5.60;;;14.30;98.30;;;;;;5166728;23;20792;-80
2021/09/20 07:44:07;;;;;;;6.70;6.00;;;14.30;98.30;;;;;;5168617;23;20451;-81
2021/09/20 07:46:10;;;;;;;7.70;5.47;;;14.40;98.30;;;;;;5168028;23;20908;-81
2021/09/20 07:48:13;;;;;;;7.20;5.77;;;14.40;98.30;;;;;;5167724;23;20510;-81
2021/09/20 07:50:18;;;;;;;7.27;5.47;;;14.50;98.30;;;;;;5167905;23;20445;-81
2021/09/20 07:52:21;;;;;;;10.83;8.20;;;14.50;98.30;;;;;;5168509;23;20450;-82
2021/09/20 07:54:24;;;;;;;14.87;12.23;;;14.50;98.30;;;;;;5168930;23;20423;-81
2021/09/20 07:56:28;;;;;;;12.47;10.10;;;14.60;98.30;;;;;;5167146;23;20424;-81
2021/09/20 07:58:32;;;;;;;14.50;10.00;;;14.60;98.30;;;;;;5166390;22;20497;-81
2021/09/20 08:00:40;;;;;;;7.03;6.13;;;14.60;98.30;;;;;;5180595;23;20419;-81
2021/09/20 08:02:45;;;;;;;6.13;5.33;;;14.60;98.30;;;;;;5178625;23;20454;-81
2021/09/20 08:04:57;;;;;;;5.63;4.77;;;14.60;98.30;;;;;;5171638;23;20511;-81
2021/09/20 08:07:04;;;;;;;5.87;5.20;;;14.60;98.30;;;;;;5175881;23;20420;-81
2021/09/20 08:09:09;;;;;;;6.00;4.80;;;14.60;98.30;;;;;;5153611;23;20428;-81
2021/09/20 08:11:14;;;;;;;11.20;9.47;;;14.70;98.30;;;;;;5154093;23;20452;-81
2021/09/20 08:15:50;;;;;;;20.87;15.00;;;14.90;98.30;;;;;;5076903;23;20443;-81
2021/09/20 08:17:55;;;;;;;13.30;9.83;;;14.90;98.30;;;;;;5154075;23;20471;-81
2021/09/20 08:20:12;;;;;;;9.67;6.80;;;14.90;98.30;;;;;;5153775;23;20428;-81
2021/09/20 08:22:25;;;;;;;8.53;6.07;;;14.90;98.30;;;;;;5145579;23;20428;-81
2021/09/20 08:24:31;;;;;;;13.90;7.00;;;14.80;98.30;;;;;;5145832;23;20455;-81
2021/09/20 08:26:36;;;;;;;6.60;5.00;;;14.80;98.30;;;;;;5153600;23;20428;-81
2021/09/20 08:28:40;;;;;;;6.63;5.60;;;14.60;98.30;;;;;;5152884;23;20519;-81
2021/09/20 08:30:43;;;;;;;6.00;5.30;;;14.50;98.30;;;;;;5146737;23;20822;-81
2021/09/20 08:32:47;;;;;;;7.83;5.50;;;14.70;98.30;;;;;;5146493;23;20827;-81
2021/09/20 08:34:50;;;;;;;7.50;5.17;;;14.70;98.30;;;;;;5154169;23;20433;-81
2021/09/20 08:36:53;;;;;;;6.60;5.43;;;14.60;98.30;;;;;;5154500;23;20519;-81
2021/09/20 08:38:56;;;;;;;6.60;5.30;;;14.70;98.30;;;;;;5145512;23;20456;-81
2021/09/20 08:41:00;;;;;;;9.87;6.60;;;14.70;98.30;;;;;;5146641;23;20425;-81
2021/09/20 08:43:03;;;;;;;13.43;8.87;;;14.70;98.30;;;;;;5156185;23;20940;-81
2021/09/20 08:45:09;;;;;;;7.10;5.43;;;14.80;98.30;;;;;;5153658;23;20457;-81
2021/09/20 08:47:14;;;;;;;13.97;10.60;;;14.80;98.30;;;;;;5146370;23;20483;-81
2021/09/20 08:49:19;;;;;;;10.87;9.37;;;14.90;98.30;;;;;;5153828;23;20496;-81
2021/09/20 08:51:22;;;;;;;32.53;22.83;;;14.90;98.30;;;;;;5146614;23;20445;-81
2021/09/20 08:53:26;;;;;;;10.90;7.33;;;14.80;98.30;;;;;;5146391;23;20967;-81
2021/09/20 08:55:29;;;;;;;7.73;6.00;;;14.90;98.30;;;;;;5154415;23;20758;-81
2021/09/20 08:57:33;;;;;;;7.83;6.27;;;14.90;98.30;;;;;;5146486;23;20452;-81
2021/09/20 08:59:37;;;;;;;6.37;5.37;;;14.90;98.30;;;;;;5146599;23;20447;-81
2021/09/20 09:01:42;;;;;;;10.63;8.00;;;14.80;98.30;;;;;;5154169;23;20543;-81
2021/09/20 09:03:45;;;;;;;8.87;6.30;;;14.80;98.30;;;;;;5145762;23;20409;-81
2021/09/20 09:05:51;;;;;;;12.80;10.80;;;14.90;98.30;;;;;;5145510;23;20433;-81
2021/09/20 09:07:56;;;;;;;21.20;15.60;;;14.90;98.30;;;;;;5152904;23;20968;-80
2021/09/20 09:09:59;;;;;;;24.07;17.27;;;14.90;98.30;;;;;;5154975;23;20429;-81
2021/09/20 09:12:11;;;;;;;10.87;6.37;;;15.10;98.30;;;;;;5156085;23;20527;-81
2021/09/20 09:14:14;;;;;;;6.67;4.90;;;15.20;98.30;;;;;;5156932;23;20858;-81
2021/09/20 09:16:19;;;;;;;10.53;7.90;;;15.30;98.30;;;;;;5156360;23;20436;-81
2021/09/20 09:18:22;;;;;;;20.13;13.83;;;15.30;98.30;;;;;;5156460;23;20445;-81
2021/09/20 09:20:28;;;;;;;7.00;6.07;;;15.30;98.30;;;;;;5148599;23;20433;-81
2021/09/20 09:22:41;;;;;;;18.37;12.90;;;15.30;98.30;;;;;;5155850;23;20447;-81
2021/09/20 09:24:59;;;;;;;17.20;10.80;;;15.20;98.30;;;;;;5155508;23;20912;-81
2021/09/20 09:27:04;;;;;;;10.77;7.70;;;15.20;98.30;;;;;;5155270;23;20773;-81
2021/09/20 09:29:09;;;;;;;7.57;4.97;;;15.20;98.30;;;;;;5157483;23;20423;-81
2021/09/20 09:31:15;;;;;;;5.40;4.07;;;15.30;98.30;;;;;;5154797;23;20431;-81
2021/09/20 09:33:21;;;;;;;5.87;4.60;;;15.20;98.30;;;;;;5147332;23;20417;-81
2021/09/20 09:35:24;;;;;;;5.27;4.40;;;15.10;98.30;;;;;;5146970;23;20452;-81
2021/09/20 09:37:27;;;;;;;8.00;5.33;;;15.20;98.30;;;;;;5154680;23;20452;-81
2021/09/20 09:39:31;;;;;;;6.20;4.70;;;15.20;98.30;;;;;;5154481;23;20488;-81
2021/09/20 09:41:36;;;;;;;7.30;6.00;;;15.20;98.30;;;;;;5146193;23;20455;-81
2021/09/20 09:43:41;;;;;;;5.30;4.30;;;15.10;98.30;;;;;;5154562;23;20793;-81
2021/09/20 09:45:44;;;;;;;9.67;7.40;;;15.10;98.30;;;;;;5147040;23;20961;-81
2021/09/20 09:47:49;;;;;;;5.90;5.17;;;15.10;98.30;;;;;;5154231;23;20957;-81
2021/09/20 09:50:13;;;;;;;6.00;4.67;;;15.10;98.30;;;;;;5154676;23;20417;-81
2021/09/20 09:52:20;;;;;;;4.83;4.33;;;15.10;98.30;;;;;;5152672;23;20523;-81
2021/09/20 09:54:27;;;;;;;10.70;6.63;;;15.20;98.30;;;;;;5152435;23;20413;-81
2021/09/20 09:56:31;;;;;;;5.30;4.40;;;15.20;98.30;;;;;;5152074;23;20428;-81
2021/09/20 09:58:34;;;;;;;6.97;5.17;;;15.30;98.30;;;;;;5143685;23;20457;-81
2021/09/20 10:00:37;;;;;;;7.47;5.60;;;15.30;98.30;;;;;;5151322;23;20417;-81
2021/09/20 10:02:43;;;;;;;7.60;5.70;;;15.40;98.30;;;;;;5150796;23;20432;-81
2021/09/20 10:04:53;;;;;;;7.20;5.60;;;15.50;98.30;;;;;;5151246;23;20417;-81
2021/09/20 10:06:58;;;;;;;5.73;5.13;;;15.60;98.30;;;;;;5151910;23;20780;-81
2021/09/20 10:09:01;;;;;;;4.23;3.83;;;15.70;98.30;;;;;;5152088;23;20908;-81
2021/09/20 10:11:08;;;;;;;5.40;3.93;;;15.70;98.30;;;;;;5150867;23;20417;-81
2021/09/20 10:13:14;;;;;;;5.37;4.47;;;15.80;98.30;;;;;;5151906;23;20473;-81
2021/09/20 10:15:19;;;;;;;7.13;6.30;;;15.80;98.30;;;;;;5143927;23;20471;-81
2021/09/20 10:17:24;;;;;;;12.63;7.63;;;15.90;98.30;;;;;;5145228;23;20457;-81
2021/09/20 10:19:27;;;;;;;11.47;7.33;;;15.80;98.30;;;;;;5157054;23;20500;-81
2021/09/20 10:21:31;;;;;;;7.27;5.10;;;15.80;98.30;;;;;;5153291;23;21129;-81
2021/09/20 10:23:34;;;;;;;5.80;4.30;;;15.80;98.30;;;;;;5152527;23;20496;-81
2021/09/20 10:25:37;;;;;;;6.60;4.33;;;15.80;98.30;;;;;;5145003;23;20750;-81
2021/09/20 10:27:41;;;;;;;4.53;4.00;;;16.00;98.30;;;;;;5152442;23;20774;-81
2021/09/20 10:29:49;;;;;;;7.93;5.00;;;15.90;98.30;;;;;;5152093;23;20516;-81
2021/09/20 10:31:53;;;;;;;4.80;4.17;;;15.90;98.30;;;;;;5152406;23;20745;-81
2021/09/20 10:34:27;;;;;;;8.97;5.07;;;15.90;98.30;;;;;;5142212;23;20435;-81
2021/09/20 10:36:46;;;;;;;7.30;4.17;;;15.90;98.30;;;;;;5149942;23;20474;-81
2021/09/20 10:38:52;;;;;;;5.23;4.13;;;16.00;98.30;;;;;;5142189;23;20448;-81
2021/09/20 10:41:11;;;;;;;4.57;4.03;;;16.10;98.30;;;;;;5149985;23;20739;-81
2021/09/20 10:43:25;;;;;;;6.57;4.00;;;16.20;98.30;;;;;;5149828;23;20909;-81
2021/09/20 10:45:45;;;;;;;4.77;4.27;;;16.20;98.30;;;;;;5152331;23;20420;-81
2021/09/20 10:47:48;;;;;;;5.77;4.60;;;16.40;98.30;;;;;;5153086;23;20443;-81
2021/09/20 10:49:52;;;;;;;4.90;4.40;;;16.50;98.30;;;;;;5153176;23;20449;-81
2021/09/20 10:52:03;;;;;;;7.43;4.30;;;16.50;98.30;;;;;;5152712;23;20737;-81
2021/09/20 10:54:21;;;;;;;8.10;4.17;;;16.60;98.30;;;;;;5152369;23;20520;-81